createdAt,value
2019-03-20T00:02:18.222Z,93.50
2019-03-20T00:04:49.925Z,93.50
2019-03-20T00:07:16.704Z,93.70
2019-03-20T00:09:45.096Z,93.60
2019-03-20T00:12:13.511Z,93.70
2019-03-20T00:14:41.918Z,93.60
2019-03-20T00:17:10.345Z,93.70
2019-03-20T00:19:38.733Z,93.50
2019-03-20T00:22:07.170Z,93.80
2019-03-20T00:24:35.575Z,94.00
2019-03-20T00:27:04.088Z,94.10
2019-03-20T00:29:32.468Z,94.00
2019-03-20T00:32:00.914Z,93.90
2019-03-20T00:34:29.320Z,93.90
2019-03-20T00:36:57.733Z,94.30
2019-03-20T00:39:26.150Z,94.60
2019-03-20T00:41:54.562Z,94.80
2019-03-20T00:44:22.987Z,95.00
2019-03-20T00:46:51.423Z,95.10
2019-03-20T00:49:19.838Z,95.30
2019-03-20T00:51:48.270Z,95.40
2019-03-20T00:54:16.670Z,95.50
2019-03-20T00:56:45.105Z,95.50
2019-03-20T00:59:13.547Z,95.40
2019-03-20T01:01:41.972Z,95.30
2019-03-20T01:04:10.367Z,95.30
2019-03-20T01:06:38.799Z,95.00
2019-03-20T01:09:07.580Z,94.80
2019-03-20T01:11:36.016Z,94.70
2019-03-20T01:14:04.421Z,94.80
2019-03-20T01:16:32.919Z,94.60
2019-03-20T01:19:01.290Z,94.80
2019-03-20T01:21:29.738Z,95.10
2019-03-20T01:23:58.140Z,95.20
2019-03-20T01:26:26.559Z,95.30
2019-03-20T01:28:54.966Z,95.00
2019-03-20T01:31:23.387Z,94.90
2019-03-20T01:33:51.776Z,94.80
2019-03-20T01:36:20.182Z,95.00
2019-03-20T01:38:48.602Z,95.50
2019-03-20T01:41:17.064Z,95.50
2019-03-20T01:43:45.471Z,95.60
2019-03-20T01:46:13.884Z,95.70
2019-03-20T01:48:42.298Z,95.50
2019-03-20T01:51:20.907Z,95.60
2019-03-20T01:53:49.290Z,95.50
2019-03-20T01:56:17.690Z,95.60
2019-03-20T01:58:46.099Z,96.10
2019-03-20T02:01:14.514Z,95.40
2019-03-20T02:03:42.945Z,95.40
2019-03-20T02:06:11.351Z,95.50
2019-03-20T02:08:39.764Z,95.80
2019-03-20T02:11:08.134Z,95.70
2019-03-20T02:13:36.562Z,96.00
2019-03-20T02:16:04.957Z,95.80
2019-03-20T02:18:33.370Z,95.80
2019-03-20T02:21:01.755Z,96.00
2019-03-20T02:23:30.162Z,95.90
2019-03-20T02:25:58.558Z,96.10
2019-03-20T02:28:26.995Z,95.90
2019-03-20T02:30:55.398Z,95.90
2019-03-20T02:33:23.826Z,96.20
2019-03-20T02:35:52.507Z,95.90
2019-03-20T02:38:21.039Z,95.50
2019-03-20T02:40:49.438Z,95.60
2019-03-20T02:43:17.861Z,95.50
2019-03-20T02:45:46.243Z,95.50
2019-03-20T02:48:14.665Z,95.50
2019-03-20T02:50:43.067Z,95.60
2019-03-20T02:53:11.495Z,95.90
2019-03-20T02:55:39.927Z,95.80
2019-03-20T02:58:08.334Z,95.80
2019-03-20T03:00:36.720Z,95.80
2019-03-20T03:03:05.142Z,96.00
2019-03-20T03:05:33.537Z,95.80
2019-03-20T03:08:01.946Z,95.90
2019-03-20T03:10:30.325Z,96.20
2019-03-20T03:12:58.742Z,96.20
2019-03-20T03:15:27.133Z,96.30
2019-03-20T03:17:55.599Z,96.20
2019-03-20T03:20:24.002Z,96.20
2019-03-20T03:22:52.415Z,96.10
2019-03-20T03:25:20.849Z,95.70
2019-03-20T03:27:49.266Z,96.10
2019-03-20T03:30:18.417Z,96.40
2019-03-20T03:32:46.983Z,96.40
2019-03-20T03:35:18.669Z,96.60
2019-03-20T03:37:45.613Z,96.90
2019-03-20T03:40:15.431Z,96.50
2019-03-20T03:42:43.843Z,96.70
2019-03-20T03:45:14.347Z,96.50
2019-03-20T03:47:42.727Z,96.50
2019-03-20T03:50:11.218Z,96.40
2019-03-20T03:52:39.610Z,96.70
2019-03-20T03:55:10.639Z,96.40
2019-03-20T03:57:39.430Z,96.30
2019-03-20T04:00:18.161Z,96.50
2019-03-20T04:02:46.564Z,96.30
2019-03-20T04:05:15.019Z,96.60
2019-03-20T04:07:43.456Z,96.30
2019-03-20T04:10:16.034Z,96.30
2019-03-20T04:12:43.750Z,96.30
2019-03-20T04:15:16.237Z,96.40
2019-03-20T04:17:44.630Z,96.50
2019-03-20T04:20:18.080Z,96.80
2019-03-20T04:22:46.466Z,97.10
2019-03-20T04:25:14.972Z,97.50
2019-03-20T04:27:43.370Z,97.00
2019-03-20T04:30:16.553Z,97.10
2019-03-20T04:32:44.940Z,96.90
2019-03-20T04:35:13.840Z,96.90
2019-03-20T04:37:42.259Z,97.30
2019-03-20T04:40:15.456Z,97.20
2019-03-20T04:42:43.865Z,96.90
2019-03-20T04:45:13.424Z,96.80
2019-03-20T04:47:41.855Z,96.60
2019-03-20T04:50:11.644Z,96.60
2019-03-20T04:52:40.049Z,97.00
2019-03-20T04:55:08.927Z,96.70
2019-03-20T04:57:37.338Z,97.10
2019-03-20T05:00:09.311Z,97.00
2019-03-20T05:02:37.726Z,97.10
2019-03-20T05:05:06.598Z,96.90
2019-03-20T05:07:35.046Z,96.90
2019-03-20T05:10:05.573Z,96.80
2019-03-20T05:12:34.004Z,96.80
2019-03-20T05:15:02.521Z,96.90
2019-03-20T05:17:30.947Z,97.20
2019-03-20T05:19:59.359Z,97.40
2019-03-20T05:22:27.782Z,97.50
2019-03-20T05:24:56.207Z,97.50
2019-03-20T05:27:24.632Z,97.50
2019-03-20T05:29:53.155Z,97.00
2019-03-20T05:32:21.600Z,96.80
2019-03-20T05:34:50.056Z,96.50
2019-03-20T05:37:18.508Z,96.60
2019-03-20T05:39:46.910Z,96.50
2019-03-20T05:42:15.371Z,96.50
2019-03-20T05:44:43.815Z,96.50
2019-03-20T05:47:12.219Z,96.20
2019-03-20T05:49:40.670Z,95.80
2019-03-20T05:52:09.162Z,95.50
2019-03-20T05:54:37.593Z,95.40
2019-03-20T05:57:06.543Z,95.00
2019-03-20T05:59:34.954Z,94.80
2019-03-20T06:02:03.410Z,94.70
2019-03-20T06:04:31.839Z,91.80
2019-03-20T06:07:00.305Z,88.20
2019-03-20T06:09:28.706Z,84.20
2019-03-20T06:11:57.151Z,77.60
2019-03-20T06:14:25.586Z,70.00
2019-03-20T06:16:53.989Z,64.80
2019-03-20T06:19:22.401Z,56.40
2019-03-20T06:21:50.924Z,47.80
2019-03-20T06:24:19.319Z,38.30
2019-03-20T06:26:47.728Z,34.00
2019-03-20T06:29:16.159Z,31.30
2019-03-20T06:31:44.796Z,31.70
2019-03-20T06:34:13.221Z,31.40
2019-03-20T06:36:41.683Z,30.70
2019-03-20T06:39:10.122Z,30.30
2019-03-20T06:41:38.567Z,28.80
2019-03-20T06:44:07.009Z,26.90
2019-03-20T06:46:35.443Z,25.40
2019-03-20T06:49:03.866Z,27.70
2019-03-20T06:51:32.619Z,27.00
2019-03-20T06:54:00.999Z,26.20
2019-03-20T06:56:29.406Z,25.90
2019-03-20T06:59:23.422Z,25.10
2019-03-20T07:01:51.926Z,26.90
2019-03-20T07:04:23.566Z,25.40
2019-03-20T07:06:55.225Z,23.30
2019-03-20T07:09:38.621Z,23.40
2019-03-20T07:12:07.026Z,22.80
2019-03-20T07:14:35.401Z,20.80
2019-03-20T07:17:03.824Z,20.40
2019-03-20T07:19:32.222Z,19.50
2019-03-20T07:22:00.628Z,18.00
2019-03-20T07:24:28.999Z,16.90
2019-03-20T07:26:57.402Z,16.00
2019-03-20T07:29:25.801Z,15.80
2019-03-20T07:31:54.209Z,15.70
2019-03-20T07:34:22.622Z,15.50
2019-03-20T07:36:51.053Z,14.70
2019-03-20T07:39:19.448Z,15.30
2019-03-20T07:41:47.854Z,16.20
2019-03-20T07:44:16.244Z,19.50
2019-03-20T07:46:44.657Z,18.90
2019-03-20T07:49:13.032Z,18.10
2019-03-20T07:51:41.407Z,18.00
2019-03-20T07:54:09.799Z,19.60
2019-03-20T07:56:38.166Z,17.60
2019-03-20T07:59:06.578Z,17.80
2019-03-20T08:01:34.977Z,20.50
2019-03-20T08:04:03.373Z,21.30
2019-03-20T08:06:31.752Z,20.00
2019-03-20T08:09:00.165Z,19.10
2019-03-20T08:11:28.716Z,18.80
2019-03-20T08:13:57.100Z,18.00
2019-03-20T08:16:25.412Z,18.40
2019-03-20T08:18:53.811Z,19.70
2019-03-20T08:21:22.194Z,18.10
2019-03-20T08:23:51.052Z,16.70
2019-03-20T08:26:19.467Z,15.80
2019-03-20T08:28:47.863Z,17.50
2019-03-20T08:31:16.274Z,16.90
2019-03-20T08:33:44.706Z,17.60
2019-03-20T08:36:13.079Z,16.20
2019-03-20T08:38:41.490Z,16.30
2019-03-20T08:41:09.922Z,16.40
2019-03-20T08:43:38.365Z,18.00
2019-03-20T08:46:06.784Z,17.70
2019-03-20T08:48:35.273Z,17.30
2019-03-20T08:51:03.692Z,14.90
2019-03-20T08:53:32.095Z,16.30
2019-03-20T08:56:00.528Z,16.30
2019-03-20T08:58:28.979Z,15.70
2019-03-20T09:00:57.422Z,16.70
2019-03-20T09:03:26.572Z,15.90
2019-03-20T09:05:54.930Z,15.80
2019-03-20T09:08:29.262Z,15.30
2019-03-20T09:10:55.088Z,15.20
2019-03-20T09:13:26.235Z,14.30
2019-03-20T09:15:54.688Z,14.60
2019-03-20T09:18:23.099Z,14.00
2019-03-20T09:20:51.529Z,14.00
2019-03-20T09:23:20.020Z,14.40
2019-03-20T09:25:48.399Z,14.20
2019-03-20T09:28:16.846Z,15.50
2019-03-20T09:30:45.259Z,15.00
2019-03-20T09:33:14.345Z,15.60
2019-03-20T09:35:42.763Z,17.70
2019-03-20T09:38:11.289Z,18.70
2019-03-20T09:40:39.663Z,17.00
2019-03-20T09:43:08.086Z,17.90
2019-03-20T09:45:36.559Z,17.60
2019-03-20T09:48:10.937Z,18.10
2019-03-20T09:50:39.528Z,20.00
2019-03-20T09:53:07.979Z,20.60
2019-03-20T09:55:37.484Z,20.80
2019-03-20T09:58:11.573Z,20.00
2019-03-20T10:00:36.094Z,18.30
2019-03-20T10:03:04.571Z,19.10
2019-03-20T10:05:33.099Z,18.30
2019-03-20T10:08:01.566Z,17.30
2019-03-20T10:10:31.036Z,17.00
2019-03-20T10:12:59.530Z,18.40
2019-03-20T10:15:31.288Z,20.30
2019-03-20T10:17:59.805Z,21.60
2019-03-20T10:20:28.299Z,20.40
2019-03-20T10:22:56.709Z,20.90
2019-03-20T10:25:25.183Z,21.60
2019-03-20T10:27:53.586Z,25.90
2019-03-20T10:30:24.337Z,23.10
2019-03-20T10:32:52.785Z,23.40
2019-03-20T10:35:21.266Z,26.60
2019-03-20T10:37:49.700Z,25.70
2019-03-20T10:40:22.923Z,28.60
2019-03-20T10:42:51.362Z,26.40
2019-03-20T10:45:20.059Z,27.30
2019-03-20T10:47:48.941Z,28.50
2019-03-20T10:50:27.894Z,26.80
2019-03-20T10:52:56.336Z,27.10
2019-03-20T10:55:24.813Z,29.50
2019-03-20T10:57:53.230Z,27.70
2019-03-20T11:00:25.264Z,31.30
2019-03-20T11:02:53.739Z,29.30
2019-03-20T11:05:22.208Z,29.40
2019-03-20T11:07:50.672Z,29.20
2019-03-20T11:10:29.115Z,28.70
2019-03-20T11:12:57.546Z,28.70
2019-03-20T11:15:29.610Z,28.20
2019-03-20T11:17:57.145Z,27.80
2019-03-20T11:20:25.764Z,28.10
2019-03-20T11:22:54.616Z,29.40
2019-03-20T11:25:24.136Z,29.70
2019-03-20T11:27:52.591Z,30.20
2019-03-20T11:30:29.301Z,30.70
2019-03-20T11:32:57.732Z,29.70
2019-03-20T11:35:26.186Z,29.70
2019-03-20T11:37:54.604Z,29.00
2019-03-20T11:40:25.447Z,28.60
2019-03-20T11:42:53.920Z,27.70
2019-03-20T11:45:23.578Z,30.10
2019-03-20T11:47:52.341Z,28.40
2019-03-20T11:50:26.161Z,30.80
2019-03-20T11:52:55.317Z,29.00
2019-03-20T11:55:23.783Z,30.20
2019-03-20T11:57:52.222Z,29.60
2019-03-20T12:00:21.966Z,29.40
2019-03-20T12:02:50.427Z,28.90
2019-03-20T12:05:18.930Z,30.00
2019-03-20T12:07:47.378Z,29.20
2019-03-20T12:10:18.597Z,28.20
2019-03-20T12:12:47.057Z,31.50
2019-03-20T12:15:15.537Z,28.90
2019-03-20T12:17:43.972Z,28.50
2019-03-20T12:20:20.377Z,29.30
2019-03-20T12:22:49.779Z,29.20
2019-03-20T12:25:26.970Z,31.60
2019-03-20T12:27:55.406Z,28.60
2019-03-20T12:30:28.458Z,28.70
2019-03-20T12:32:56.881Z,29.30
2019-03-20T12:35:27.301Z,30.50
2019-03-20T12:37:55.698Z,31.30
2019-03-20T12:40:29.035Z,30.40
2019-03-20T12:42:57.586Z,29.10
2019-03-20T12:45:28.722Z,28.40
2019-03-20T12:47:57.143Z,28.00
2019-03-20T12:50:25.573Z,29.80
2019-03-20T12:52:54.010Z,28.80
2019-03-20T12:55:22.510Z,28.90
2019-03-20T12:57:50.924Z,29.40
2019-03-20T13:00:23.661Z,31.90
2019-03-20T13:02:52.080Z,29.90
2019-03-20T13:05:20.668Z,29.80
2019-03-20T13:07:49.085Z,29.90
2019-03-20T13:10:26.478Z,30.00
2019-03-20T13:12:54.877Z,30.50
2019-03-20T13:15:27.139Z,32.60
2019-03-20T13:17:56.299Z,32.00
2019-03-20T13:20:24.714Z,30.50
2019-03-20T13:23:02.012Z,32.20
2019-03-20T13:25:30.437Z,32.90
2019-03-20T13:27:58.853Z,29.10
2019-03-20T13:30:45.453Z,28.30
2019-03-20T13:33:13.860Z,30.00
2019-03-20T13:35:42.286Z,29.40
2019-03-20T13:38:10.699Z,29.90
2019-03-20T13:40:39.151Z,30.30
2019-03-20T13:43:07.588Z,31.00
2019-03-20T13:45:36.046Z,31.40
2019-03-20T13:48:04.549Z,32.10
2019-03-20T13:50:33.329Z,28.90
2019-03-20T13:53:02.325Z,30.30
2019-03-20T13:55:30.758Z,29.90
2019-03-20T13:57:59.171Z,29.50
2019-03-20T14:00:27.917Z,29.30
2019-03-20T14:02:56.362Z,30.80
2019-03-20T14:05:24.778Z,30.80
2019-03-20T14:07:53.226Z,31.60
2019-03-20T14:10:31.582Z,32.00
2019-03-20T14:12:59.986Z,30.90
2019-03-20T14:15:28.398Z,28.80
2019-03-20T14:17:56.832Z,30.90
2019-03-20T14:20:28.754Z,33.70
2019-03-20T14:22:57.189Z,32.50
2019-03-20T14:25:25.674Z,33.50
2019-03-20T14:27:54.097Z,33.10
2019-03-20T14:30:27.395Z,32.60
2019-03-20T14:32:55.891Z,31.80
2019-03-20T14:35:24.304Z,31.80
2019-03-20T14:37:52.745Z,32.40
2019-03-20T14:40:34.865Z,30.90
2019-03-20T14:42:54.541Z,31.40
2019-03-20T14:45:22.937Z,30.50
2019-03-20T14:47:51.385Z,30.90
2019-03-20T14:50:24.861Z,31.50
2019-03-20T14:52:53.296Z,32.60
2019-03-20T14:55:21.700Z,33.70
2019-03-20T14:57:50.166Z,33.60
2019-03-20T15:00:26.882Z,33.80
2019-03-20T15:02:55.377Z,33.30
2019-03-20T15:05:23.801Z,33.60
2019-03-20T15:07:52.308Z,35.00
2019-03-20T15:10:22.172Z,33.50
2019-03-20T15:12:51.240Z,33.90
2019-03-20T15:15:31.509Z,34.30
2019-03-20T15:17:59.940Z,34.40
2019-03-20T15:20:28.369Z,35.60
2019-03-20T15:22:56.805Z,35.60
2019-03-20T15:25:25.216Z,36.60
2019-03-20T15:27:53.649Z,34.60
2019-03-20T15:30:26.588Z,35.00
2019-03-20T15:32:54.352Z,34.80
2019-03-20T15:35:22.757Z,35.40
2019-03-20T15:37:51.204Z,35.40
2019-03-20T15:40:26.885Z,35.80
2019-03-20T15:42:55.334Z,36.40
2019-03-20T15:45:23.752Z,36.30
2019-03-20T15:47:52.182Z,36.60
2019-03-20T15:50:22.901Z,37.20
2019-03-20T15:52:51.339Z,37.80
2019-03-20T15:55:37.417Z,37.20
2019-03-20T15:58:05.848Z,37.20
2019-03-20T16:00:34.329Z,38.00
2019-03-20T16:03:11.336Z,37.10
2019-03-20T16:05:39.744Z,37.50
2019-03-20T16:08:08.191Z,37.40
2019-03-20T16:10:36.613Z,37.40
2019-03-20T16:13:05.222Z,36.90
2019-03-20T16:15:33.629Z,37.10
2019-03-20T16:18:02.062Z,37.30
2019-03-20T16:20:30.484Z,38.30
2019-03-20T16:22:58.924Z,38.50
2019-03-20T16:25:27.345Z,39.10
2019-03-20T16:27:55.805Z,40.00
2019-03-20T16:30:29.181Z,39.30
2019-03-20T16:32:57.600Z,38.90
2019-03-20T16:35:26.024Z,39.20
2019-03-20T16:37:54.452Z,41.10
2019-03-20T16:40:24.805Z,40.60
2019-03-20T16:42:53.233Z,41.60
2019-03-20T16:45:26.565Z,41.80
2019-03-20T16:47:55.000Z,41.60
2019-03-20T16:50:23.400Z,42.70
2019-03-20T16:52:51.841Z,43.10
2019-03-20T16:55:20.242Z,43.50
2019-03-20T16:57:48.665Z,43.90
2019-03-20T17:00:24.661Z,43.30
2019-03-20T17:02:53.089Z,43.60
2019-03-20T17:05:21.761Z,43.70
2019-03-20T17:07:50.172Z,43.90
2019-03-20T17:10:30.019Z,43.90
2019-03-20T17:12:58.989Z,44.50
2019-03-20T17:15:30.206Z,44.80
2019-03-20T17:17:58.634Z,45.10
2019-03-20T17:20:27.036Z,45.40
2019-03-20T17:22:55.446Z,45.60
2019-03-20T17:25:23.877Z,47.00
2019-03-20T17:27:52.286Z,47.90
2019-03-20T17:30:32.900Z,49.10
2019-03-20T17:33:01.309Z,50.30
2019-03-20T17:35:29.738Z,51.20
2019-03-20T17:37:58.134Z,51.30
2019-03-20T17:40:27.814Z,52.70
2019-03-20T17:42:56.227Z,52.40
2019-03-20T17:45:26.087Z,52.30
2019-03-20T17:47:54.493Z,54.30
2019-03-20T17:50:33.474Z,55.80
2019-03-20T17:53:01.954Z,53.40
2019-03-20T17:55:30.381Z,54.90
2019-03-20T17:57:58.872Z,56.80
2019-03-20T18:00:36.515Z,58.30
2019-03-20T18:03:05.772Z,57.80
2019-03-20T18:05:34.192Z,56.90
2019-03-20T18:08:02.604Z,57.20
2019-03-20T18:10:33.105Z,57.70
2019-03-20T18:13:01.101Z,60.70
2019-03-20T18:15:29.525Z,62.70
2019-03-20T18:17:57.939Z,64.20
2019-03-20T18:20:26.403Z,65.00
2019-03-20T18:22:54.914Z,66.20
2019-03-20T18:25:23.480Z,66.10
2019-03-20T18:27:51.939Z,66.90
2019-03-20T18:30:24.985Z,66.70
2019-03-20T18:32:53.439Z,67.50
2019-03-20T18:35:21.921Z,67.20
2019-03-20T18:37:50.402Z,67.70
2019-03-20T18:40:20.234Z,68.00
2019-03-20T18:42:48.695Z,68.30
2019-03-20T18:45:24.236Z,69.60
2019-03-20T18:47:52.681Z,67.50
2019-03-20T18:50:26.946Z,66.70
2019-03-20T18:52:55.957Z,68.50
2019-03-20T18:55:27.131Z,67.50
2019-03-20T18:57:55.557Z,66.90
2019-03-20T19:00:25.652Z,67.80
2019-03-20T19:02:56.092Z,70.60
2019-03-20T19:05:45.611Z,67.80
2019-03-20T19:08:16.419Z,69.70
2019-03-20T19:10:44.863Z,70.50
2019-03-20T19:13:13.318Z,69.30
2019-03-20T19:15:41.755Z,70.80
2019-03-20T19:18:10.182Z,72.80
2019-03-20T19:20:38.626Z,73.60
2019-03-20T19:23:07.212Z,73.40
2019-03-20T19:25:35.615Z,73.90
2019-03-20T19:28:04.040Z,73.60
2019-03-20T19:30:32.441Z,73.50
2019-03-20T19:33:00.866Z,74.20
2019-03-20T19:35:29.278Z,73.70
2019-03-20T19:37:57.696Z,74.10
2019-03-20T19:40:26.108Z,75.10
2019-03-20T19:42:54.572Z,75.00
2019-03-20T19:45:23.001Z,75.20
2019-03-20T19:47:51.393Z,75.10
2019-03-20T19:50:22.111Z,75.20
2019-03-20T19:52:50.496Z,74.90
2019-03-20T19:55:18.922Z,74.80
2019-03-20T19:57:47.321Z,73.90
2019-03-20T20:00:23.271Z,73.40
2019-03-20T20:02:51.629Z,74.30
2019-03-20T20:05:20.040Z,74.50
2019-03-20T20:07:48.441Z,74.00
2019-03-20T20:10:19.973Z,76.20
2019-03-20T20:12:48.486Z,75.90
2019-03-20T20:15:22.482Z,76.40
2019-03-20T20:17:50.862Z,77.40
2019-03-20T20:20:20.821Z,77.80
2019-03-20T20:22:49.202Z,77.10
2019-03-20T20:25:17.581Z,77.20
2019-03-20T20:27:45.994Z,77.30
2019-03-20T20:30:16.112Z,76.20
2019-03-20T20:32:45.115Z,77.00
2019-03-20T20:35:14.748Z,78.40
2019-03-20T20:37:43.684Z,79.30
2019-03-20T20:40:14.569Z,79.70
2019-03-20T20:42:43.479Z,80.30
2019-03-20T20:45:12.437Z,79.50
2019-03-20T20:47:40.857Z,79.90
2019-03-20T20:50:14.168Z,79.20
2019-03-20T20:52:42.665Z,78.40
2019-03-20T20:55:15.768Z,79.60
2019-03-20T20:57:44.171Z,79.80
2019-03-20T21:00:23.283Z,79.50
2019-03-20T21:02:52.730Z,79.90
2019-03-20T21:05:21.176Z,81.40
2019-03-20T21:07:49.649Z,82.00
2019-03-20T21:10:22.738Z,82.40
2019-03-20T21:12:56.941Z,82.60
2019-03-20T21:15:35.867Z,83.40
2019-03-20T21:18:17.245Z,82.80
2019-03-20T21:20:47.465Z,83.60
2019-03-20T21:23:38.630Z,83.60
2019-03-20T21:26:11.935Z,83.40
2019-03-20T21:29:11.960Z,83.70
2019-03-20T21:31:43.834Z,83.80
2019-03-20T21:34:47.178Z,83.10
2019-03-20T21:37:22.464Z,83.30
2019-03-20T21:39:50.942Z,83.60
2019-03-20T21:42:51.374Z,83.30
2019-03-20T21:45:39.788Z,84.40
2019-03-20T21:48:08.329Z,84.60
2019-03-20T21:50:48.729Z,84.10
2019-03-20T21:53:40.183Z,83.70
2019-03-20T21:56:36.023Z,84.00
2019-03-20T21:59:35.017Z,83.50
2019-03-20T22:02:40.157Z,84.00
2019-03-20T22:05:22.882Z,83.90
2019-03-20T22:07:44.710Z,84.60
2019-03-20T22:10:28.403Z,84.60
2019-03-20T22:13:05.733Z,84.10
2019-03-20T22:15:54.737Z,84.70
2019-03-20T22:18:48.870Z,84.40
2019-03-20T22:21:55.506Z,84.70
2019-03-20T22:24:49.605Z,84.20
2019-03-20T22:27:39.132Z,84.90
2019-03-20T22:30:08.517Z,84.80
2019-03-20T22:32:42.763Z,84.60
2019-03-20T22:35:40.131Z,84.60
2019-03-20T22:38:12.007Z,83.10
2019-03-20T22:41:01.544Z,82.00
2019-03-20T22:43:33.254Z,81.90
2019-03-20T22:46:13.800Z,83.10
2019-03-20T22:48:45.564Z,83.90
2019-03-20T22:51:29.086Z,83.70
2019-03-20T22:54:24.910Z,84.50
2019-03-20T22:57:14.686Z,85.70
2019-03-20T22:59:43.125Z,84.60
2019-03-20T23:02:14.926Z,84.90
2019-03-20T23:04:46.771Z,84.80
2019-03-20T23:07:15.197Z,83.80
2019-03-20T23:09:43.706Z,84.40
2019-03-20T23:12:13.455Z,85.00
2019-03-20T23:14:41.947Z,85.20
2019-03-20T23:17:10.611Z,84.60
2019-03-20T23:19:40.554Z,85.00
2019-03-20T23:22:09.206Z,85.30
2019-03-20T23:24:38.357Z,86.20
2019-03-20T23:27:16.372Z,86.30
2019-03-20T23:29:44.849Z,86.30
2019-03-20T23:32:13.253Z,86.70
2019-03-20T23:34:41.739Z,87.20
2019-03-20T23:37:10.187Z,86.90
2019-03-20T23:39:38.678Z,87.10
2019-03-20T23:42:07.242Z,86.90
2019-03-20T23:44:35.706Z,87.80
2019-03-20T23:47:04.181Z,87.50
2019-03-20T23:49:32.641Z,88.10
2019-03-20T23:52:01.136Z,87.40
2019-03-20T23:54:33.278Z,87.50
2019-03-20T23:57:01.777Z,87.50
2019-03-20T23:59:30.298Z,89.10
